Country
Station

 

Weather  for  Bandarabbass  -  Iran    Iran

  
22 °C (72 °F)
    
 
 

Current METAR for Bandarabbass is :

OIKB 210830Z 17006KT 7000 NSC 22/M01 Q1019 A3010

 

This is a report for Bandarabbass - Iran.
 
The report was made a moment ago, at 08:30 UTC .
The wind was blowing at a speed of 3.1 meters per second (6.9 miles per hour) from south (170°).
 
The temperature was 22 °C (72 °F), with a dew-point at -1 °C (30 °F).
The temperature felt like 24 °C (75 °F).
 
The atmospheric pressure was 1019 hPa (30.10 inHg).
The relative humidity was 21.5%.
 
The overall visibility was 7.0 kilometers (4.3 miles).
 

 
 
 
 

Country :   A   B   C   D   E   F   G   H   I   J   K   L   M   N   O   P   Q   R   S   T   U   V   W   Y   Z

 

Site Info  |  Disclaimer  |  Credits  |  Privacy
Contact us  |  Add to favorites
© 2013-2019 METARs - All rights reserved